sensor_id;sensor_type;location;lat;lon;timestamp;P1;durP1;ratioP1;P2;durP2;ratioP2
140;SDS011;65;48.778;9.160;2023-01-09T00:01:44;7.18;;;5.10;;
140;SDS011;65;48.778;9.160;2023-01-09T00:04:12;8.02;;;4.80;;
140;SDS011;65;48.778;9.160;2023-01-09T00:06:37;7.85;;;4.90;;
140;SDS011;65;48.778;9.160;2023-01-09T00:09:04;9.50;;;5.00;;
140;SDS011;65;48.778;9.160;2023-01-09T00:11:30;8.35;;;5.00;;
140;SDS011;65;48.778;9.160;2023-01-09T00:13:56;7.55;;;4.82;;
140;SDS011;65;48.778;9.160;2023-01-09T00:16:21;6.78;;;4.65;;
140;SDS011;65;48.778;9.160;2023-01-09T00:18:47;7.18;;;4.85;;
140;SDS011;65;48.778;9.160;2023-01-09T00:21:12;7.25;;;4.60;;
140;SDS011;65;48.778;9.160;2023-01-09T00:23:38;8.23;;;4.90;;
140;SDS011;65;48.778;9.160;2023-01-09T00:26:05;6.85;;;4.10;;
140;SDS011;65;48.778;9.160;2023-01-09T00:28:41;6.63;;;4.05;;
140;SDS011;65;48.778;9.160;2023-01-09T00:31:08;6.85;;;3.92;;
140;SDS011;65;48.778;9.160;2023-01-09T00:33:41;6.15;;;3.67;;
140;SDS011;65;48.778;9.160;2023-01-09T00:36:08;5.65;;;3.53;;
140;SDS011;65;48.778;9.160;2023-01-09T00:38:34;5.13;;;3.22;;
140;SDS011;65;48.778;9.160;2023-01-09T00:41:01;6.03;;;3.40;;
140;SDS011;65;48.778;9.160;2023-01-09T00:43:42;5.22;;;3.13;;
140;SDS011;65;48.778;9.160;2023-01-09T00:46:10;5.45;;;2.97;;
140;SDS011;65;48.778;9.160;2023-01-09T00:48:37;5.22;;;3.15;;
140;SDS011;65;48.778;9.160;2023-01-09T00:51:07;5.38;;;3.22;;
140;SDS011;65;48.778;9.160;2023-01-09T00:53:32;4.38;;;2.70;;
140;SDS011;65;48.778;9.160;2023-01-09T00:56:06;5.35;;;2.40;;
140;SDS011;65;48.778;9.160;2023-01-09T00:58:35;4.53;;;2.55;;
140;SDS011;65;48.778;9.160;2023-01-09T01:01:01;3.92;;;2.47;;
140;SDS011;65;48.778;9.160;2023-01-09T01:03:27;3.15;;;2.10;;
140;SDS011;65;48.778;9.160;2023-01-09T01:05:52;3.63;;;1.95;;
140;SDS011;65;48.778;9.160;2023-01-09T01:08:36;2.63;;;1.85;;
140;SDS011;65;48.778;9.160;2023-01-09T01:11:05;2.05;;;1.40;;
140;SDS011;65;48.778;9.160;2023-01-09T01:13:34;2.63;;;1.60;;
140;SDS011;65;48.778;9.160;2023-01-09T01:16:02;2.15;;;1.48;;
140;SDS011;65;48.778;9.160;2023-01-09T01:18:29;1.60;;;1.40;;
140;SDS011;65;48.778;9.160;2023-01-09T01:20:54;1.80;;;1.27;;
140;SDS011;65;48.778;9.160;2023-01-09T01:23:20;2.22;;;1.45;;
140;SDS011;65;48.778;9.160;2023-01-09T01:25:45;1.85;;;1.20;;
140;SDS011;65;48.778;9.160;2023-01-09T01:28:10;1.20;;;1.10;;
140;SDS011;65;48.778;9.160;2023-01-09T01:30:37;1.70;;;1.05;;
140;SDS011;65;48.778;9.160;2023-01-09T01:33:04;0.93;;;0.93;;
140;SDS011;65;48.778;9.160;2023-01-09T01:35:30;1.42;;;1.05;;
140;SDS011;65;48.778;9.160;2023-01-09T01:37:55;0.90;;;0.80;;
140;SDS011;65;48.778;9.160;2023-01-09T01:40:20;1.27;;;1.08;;
140;SDS011;65;48.778;9.160;2023-01-09T01:42:50;2.60;;;1.10;;
140;SDS011;65;48.778;9.160;2023-01-09T01:53:13;1.08;;;0.90;;
140;SDS011;65;48.778;9.160;2023-01-09T01:58:22;1.17;;;1.08;;
140;SDS011;65;48.778;9.160;2023-01-09T02:00:47;1.35;;;1.10;;
140;SDS011;65;48.778;9.160;2023-01-09T02:03:17;2.90;;;1.10;;
140;SDS011;65;48.778;9.160;2023-01-09T02:05:47;1.02;;;0.80;;
140;SDS011;65;48.778;9.160;2023-01-09T02:08:13;1.00;;;0.90;;
140;SDS011;65;48.778;9.160;2023-01-09T02:10:38;0.65;;;0.65;;
140;SDS011;65;48.778;9.160;2023-01-09T02:13:05;1.05;;;0.68;;
140;SDS011;65;48.778;9.160;2023-01-09T02:15:35;0.95;;;0.77;;
140;SDS011;65;48.778;9.160;2023-01-09T02:34:08;0.82;;;0.80;;
140;SDS011;65;48.778;9.160;2023-01-09T02:42:25;1.00;;;0.80;;
140;SDS011;65;48.778;9.160;2023-01-09T02:44:51;1.63;;;0.93;;
140;SDS011;65;48.778;9.160;2023-01-09T02:49:46;0.73;;;0.60;;
140;SDS011;65;48.778;9.160;2023-01-09T02:52:21;1.33;;;0.90;;
140;SDS011;65;48.778;9.160;2023-01-09T02:57:56;3.22;;;0.90;;
140;SDS011;65;48.778;9.160;2023-01-09T03:00:39;0.50;;;0.50;;
140;SDS011;65;48.778;9.160;2023-01-09T03:05:45;0.50;;;0.50;;
140;SDS011;65;48.778;9.160;2023-01-09T03:08:36;0.60;;;0.60;;
140;SDS011;65;48.778;9.160;2023-01-09T03:11:05;1.08;;;0.50;;
140;SDS011;65;48.778;9.160;2023-01-09T03:13:35;1.85;;;0.57;;
140;SDS011;65;48.778;9.160;2023-01-09T03:16:08;0.57;;;0.57;;
140;SDS011;65;48.778;9.160;2023-01-09T03:18:37;1.75;;;0.70;;
140;SDS011;65;48.778;9.160;2023-01-09T03:21:04;0.40;;;0.40;;
140;SDS011;65;48.778;9.160;2023-01-09T03:23:44;0.88;;;0.52;;
140;SDS011;65;48.778;9.160;2023-01-09T03:26:14;1.08;;;0.40;;
140;SDS011;65;48.778;9.160;2023-01-09T03:28:39;2.55;;;0.52;;
140;SDS011;65;48.778;9.160;2023-01-09T03:31:06;0.22;;;0.22;;
140;SDS011;65;48.778;9.160;2023-01-09T03:33:31;2.28;;;0.60;;
140;SDS011;65;48.778;9.160;2023-01-09T03:35:56;1.10;;;0.20;;
140;SDS011;65;48.778;9.160;2023-01-09T03:38:22;2.22;;;0.40;;
140;SDS011;65;48.778;9.160;2023-01-09T03:40:47;1.20;;;0.40;;
140;SDS011;65;48.778;9.160;2023-01-09T03:43:12;2.80;;;0.40;;
140;SDS011;65;48.778;9.160;2023-01-09T03:45:38;0.43;;;0.43;;
140;SDS011;65;48.778;9.160;2023-01-09T03:48:03;0.73;;;0.45;;
140;SDS011;65;48.778;9.160;2023-01-09T03:50:29;0.98;;;0.43;;
140;SDS011;65;48.778;9.160;2023-01-09T03:52:54;0.20;;;0.20;;
140;SDS011;65;48.778;9.160;2023-01-09T03:55:19;0.30;;;0.30;;
140;SDS011;65;48.778;9.160;2023-01-09T03:57:45;0.55;;;0.45;;
140;SDS011;65;48.778;9.160;2023-01-09T04:00:10;1.10;;;0.28;;
140;SDS011;65;48.778;9.160;2023-01-09T04:02:36;1.38;;;0.30;;
140;SDS011;65;48.778;9.160;2023-01-09T04:05:01;0.28;;;0.28;;
140;SDS011;65;48.778;9.160;2023-01-09T04:07:27;0.30;;;0.30;;
140;SDS011;65;48.778;9.160;2023-01-09T04:09:52;0.95;;;0.40;;
140;SDS011;65;48.778;9.160;2023-01-09T04:12:17;3.10;;;0.32;;
140;SDS011;65;48.778;9.160;2023-01-09T04:14:43;0.80;;;0.43;;
140;SDS011;65;48.778;9.160;2023-01-09T04:17:08;2.28;;;0.63;;
140;SDS011;65;48.778;9.160;2023-01-09T04:19:33;1.65;;;0.30;;
140;SDS011;65;48.778;9.160;2023-01-09T04:21:59;0.30;;;0.20;;
140;SDS011;65;48.778;9.160;2023-01-09T04:24:24;0.30;;;0.05;;
140;SDS011;65;48.778;9.160;2023-01-09T04:26:49;0.50;;;0.20;;
140;SDS011;65;48.778;9.160;2023-01-09T04:29:15;0.00;;;0.00;;
140;SDS011;65;48.778;9.160;2023-01-09T04:31:40;0.90;;;0.50;;
140;SDS011;65;48.778;9.160;2023-01-09T04:34:05;0.57;;;0.13;;
140;SDS011;65;48.778;9.160;2023-01-09T04:36:31;1.23;;;0.22;;
140;SDS011;65;48.778;9.160;2023-01-09T04:38:58;2.75;;;0.35;;
140;SDS011;65;48.778;9.160;2023-01-09T04:41:24;0.10;;;0.10;;
140;SDS011;65;48.778;9.160;2023-01-09T04:44:08;0.10;;;0.10;;
140;SDS011;65;48.778;9.160;2023-01-09T04:46:33;0.52;;;0.20;;
140;SDS011;65;48.778;9.160;2023-01-09T04:48:58;0.00;;;0.00;;
140;SDS011;65;48.778;9.160;2023-01-09T04:51:24;0.40;;;0.20;;
140;SDS011;65;48.778;9.160;2023-01-09T04:53:49;0.20;;;0.10;;
140;SDS011;65;48.778;9.160;2023-01-09T04:56:14;0.10;;;0.10;;
140;SDS011;65;48.778;9.160;2023-01-09T04:58:40;0.40;;;0.30;;
140;SDS011;65;48.778;9.160;2023-01-09T05:01:05;0.08;;;0.08;;
140;SDS011;65;48.778;9.160;2023-01-09T05:03:30;0.32;;;0.20;;
140;SDS011;65;48.778;9.160;2023-01-09T05:05:56;0.38;;;0.17;;
140;SDS011;65;48.778;9.160;2023-01-09T05:08:21;0.30;;;0.30;;
140;SDS011;65;48.778;9.160;2023-01-09T05:10:46;1.50;;;0.47;;
140;SDS011;65;48.778;9.160;2023-01-09T05:13:12;0.70;;;0.38;;
140;SDS011;65;48.778;9.160;2023-01-09T05:15:43;1.15;;;0.50;;
140;SDS011;65;48.778;9.160;2023-01-09T05:18:08;0.63;;;0.40;;
140;SDS011;65;48.778;9.160;2023-01-09T05:20:33;1.17;;;0.30;;
140;SDS011;65;48.778;9.160;2023-01-09T05:22:59;2.15;;;0.50;;
140;SDS011;65;48.778;9.160;2023-01-09T05:25:24;0.73;;;0.35;;
140;SDS011;65;48.778;9.160;2023-01-09T05:27:49;1.65;;;0.52;;
140;SDS011;65;48.778;9.160;2023-01-09T05:30:15;1.05;;;0.57;;
140;SDS011;65;48.778;9.160;2023-01-09T05:32:40;1.80;;;0.60;;
140;SDS011;65;48.778;9.160;2023-01-09T05:35:06;2.45;;;0.70;;
140;SDS011;65;48.778;9.160;2023-01-09T05:37:31;0.95;;;0.60;;
140;SDS011;65;48.778;9.160;2023-01-09T05:40:15;1.50;;;0.60;;
140;SDS011;65;48.778;9.160;2023-01-09T05:42:44;2.72;;;0.75;;
140;SDS011;65;48.778;9.160;2023-01-09T05:45:09;0.57;;;0.47;;
140;SDS011;65;48.778;9.160;2023-01-09T05:47:35;3.00;;;0.88;;
140;SDS011;65;48.778;9.160;2023-01-09T05:50:02;2.85;;;0.70;;
140;SDS011;65;48.778;9.160;2023-01-09T05:52:28;3.00;;;1.00;;
140;SDS011;65;48.778;9.160;2023-01-09T05:54:53;2.55;;;0.70;;
140;SDS011;65;48.778;9.160;2023-01-09T05:57:18;2.45;;;0.82;;
140;SDS011;65;48.778;9.160;2023-01-09T05:59:44;0.82;;;0.60;;
140;SDS011;65;48.778;9.160;2023-01-09T06:02:09;2.20;;;0.70;;
140;SDS011;65;48.778;9.160;2023-01-09T06:04:35;2.05;;;0.70;;
140;SDS011;65;48.778;9.160;2023-01-09T06:07:00;2.25;;;0.73;;
140;SDS011;65;48.778;9.160;2023-01-09T06:09:25;1.40;;;0.60;;
140;SDS011;65;48.778;9.160;2023-01-09T06:11:51;0.80;;;0.60;;
140;SDS011;65;48.778;9.160;2023-01-09T06:14:18;1.08;;;0.63;;
140;SDS011;65;48.778;9.160;2023-01-09T06:16:44;3.40;;;0.63;;
140;SDS011;65;48.778;9.160;2023-01-09T06:19:09;2.03;;;0.60;;
140;SDS011;65;48.778;9.160;2023-01-09T06:21:34;2.80;;;1.10;;
140;SDS011;65;48.778;9.160;2023-01-09T06:24:00;2.50;;;0.70;;
140;SDS011;65;48.778;9.160;2023-01-09T06:26:25;1.88;;;0.63;;
140;SDS011;65;48.778;9.160;2023-01-09T06:28:51;0.52;;;0.52;;
140;SDS011;65;48.778;9.160;2023-01-09T06:31:19;2.03;;;0.77;;
140;SDS011;65;48.778;9.160;2023-01-09T06:33:45;1.63;;;0.70;;
140;SDS011;65;48.778;9.160;2023-01-09T06:36:10;0.80;;;0.70;;
140;SDS011;65;48.778;9.160;2023-01-09T06:38:36;2.72;;;1.00;;
140;SDS011;65;48.778;9.160;2023-01-09T06:41:01;2.75;;;0.77;;
140;SDS011;65;48.778;9.160;2023-01-09T06:43:27;1.95;;;0.80;;
140;SDS011;65;48.778;9.160;2023-01-09T06:45:52;2.08;;;1.00;;
140;SDS011;65;48.778;9.160;2023-01-09T06:48:17;3.53;;;1.20;;
140;SDS011;65;48.778;9.160;2023-01-09T06:50:43;2.47;;;1.00;;
140;SDS011;65;48.778;9.160;2023-01-09T06:53:09;4.55;;;1.25;;
140;SDS011;65;48.778;9.160;2023-01-09T06:55:35;2.35;;;1.00;;
140;SDS011;65;48.778;9.160;2023-01-09T06:58:00;3.08;;;1.05;;
140;SDS011;65;48.778;9.160;2023-01-09T07:00:26;4.75;;;0.98;;
140;SDS011;65;48.778;9.160;2023-01-09T07:02:51;4.80;;;1.40;;
140;SDS011;65;48.778;9.160;2023-01-09T07:05:17;5.65;;;1.90;;
140;SDS011;65;48.778;9.160;2023-01-09T07:07:42;1.95;;;0.80;;
140;SDS011;65;48.778;9.160;2023-01-09T07:10:08;4.80;;;1.10;;
140;SDS011;65;48.778;9.160;2023-01-09T07:12:34;1.85;;;0.88;;
140;SDS011;65;48.778;9.160;2023-01-09T07:14:59;2.35;;;0.90;;
140;SDS011;65;48.778;9.160;2023-01-09T07:17:25;3.13;;;1.08;;
140;SDS011;65;48.778;9.160;2023-01-09T07:19:51;5.85;;;1.83;;
140;SDS011;65;48.778;9.160;2023-01-09T07:22:17;2.67;;;1.10;;
140;SDS011;65;48.778;9.160;2023-01-09T07:24:43;4.28;;;1.38;;
140;SDS011;65;48.778;9.160;2023-01-09T07:27:08;4.60;;;1.23;;
140;SDS011;65;48.778;9.160;2023-01-09T07:29:34;4.85;;;1.10;;
140;SDS011;65;48.778;9.160;2023-01-09T07:31:59;2.40;;;1.00;;
140;SDS011;65;48.778;9.160;2023-01-09T07:34:25;4.03;;;1.73;;
140;SDS011;65;48.778;9.160;2023-01-09T07:36:50;2.50;;;1.20;;
140;SDS011;65;48.778;9.160;2023-01-09T07:39:16;4.32;;;0.93;;
140;SDS011;65;48.778;9.160;2023-01-09T07:41:41;3.38;;;1.05;;
140;SDS011;65;48.778;9.160;2023-01-09T07:44:07;4.78;;;1.30;;
140;SDS011;65;48.778;9.160;2023-01-09T07:46:32;4.30;;;1.35;;
140;SDS011;65;48.778;9.160;2023-01-09T07:48:58;3.08;;;1.10;;
140;SDS011;65;48.778;9.160;2023-01-09T07:51:23;3.72;;;1.08;;
140;SDS011;65;48.778;9.160;2023-01-09T07:53:48;2.47;;;1.05;;
140;SDS011;65;48.778;9.160;2023-01-09T07:56:14;4.85;;;1.48;;
140;SDS011;65;48.778;9.160;2023-01-09T07:58:39;3.40;;;1.10;;
140;SDS011;65;48.778;9.160;2023-01-09T08:01:05;2.10;;;1.15;;
140;SDS011;65;48.778;9.160;2023-01-09T08:03:30;2.75;;;1.00;;
140;SDS011;65;48.778;9.160;2023-01-09T08:05:57;1.02;;;0.70;;
140;SDS011;65;48.778;9.160;2023-01-09T08:08:23;3.63;;;1.13;;
140;SDS011;65;48.778;9.160;2023-01-09T08:10:48;5.30;;;1.20;;
140;SDS011;65;48.778;9.160;2023-01-09T08:13:14;2.10;;;0.82;;
140;SDS011;65;48.778;9.160;2023-01-09T08:15:39;3.13;;;1.05;;
140;SDS011;65;48.778;9.160;2023-01-09T08:18:05;5.10;;;1.05;;
140;SDS011;65;48.778;9.160;2023-01-09T08:20:30;2.83;;;1.17;;
140;SDS011;65;48.778;9.160;2023-01-09T08:22:56;4.30;;;1.00;;
140;SDS011;65;48.778;9.160;2023-01-09T08:25:21;4.25;;;0.80;;
140;SDS011;65;48.778;9.160;2023-01-09T08:27:47;2.30;;;1.00;;
140;SDS011;65;48.778;9.160;2023-01-09T08:30:13;3.15;;;1.45;;
140;SDS011;65;48.778;9.160;2023-01-09T08:32:39;4.07;;;0.90;;
140;SDS011;65;48.778;9.160;2023-01-09T08:35:05;3.75;;;0.90;;
140;SDS011;65;48.778;9.160;2023-01-09T08:37:31;1.55;;;0.88;;
140;SDS011;65;48.778;9.160;2023-01-09T08:39:57;3.47;;;1.23;;
140;SDS011;65;48.778;9.160;2023-01-09T08:42:22;3.95;;;1.10;;
140;SDS011;65;48.778;9.160;2023-01-09T08:45:06;3.63;;;1.25;;
140;SDS011;65;48.778;9.160;2023-01-09T08:47:52;4.47;;;1.13;;
140;SDS011;65;48.778;9.160;2023-01-09T08:50:18;5.35;;;1.25;;
140;SDS011;65;48.778;9.160;2023-01-09T08:52:43;4.00;;;1.15;;
140;SDS011;65;48.778;9.160;2023-01-09T08:55:08;4.60;;;1.05;;
140;SDS011;65;48.778;9.160;2023-01-09T08:57:34;3.25;;;1.00;;
140;SDS011;65;48.778;9.160;2023-01-09T08:59:59;2.60;;;0.88;;
140;SDS011;65;48.778;9.160;2023-01-09T09:02:25;3.70;;;1.23;;
140;SDS011;65;48.778;9.160;2023-01-09T09:04:50;4.78;;;0.98;;
140;SDS011;65;48.778;9.160;2023-01-09T09:07:17;4.95;;;1.30;;
140;SDS011;65;48.778;9.160;2023-01-09T09:09:50;3.85;;;1.13;;
140;SDS011;65;48.778;9.160;2023-01-09T09:12:18;4.47;;;1.08;;
140;SDS011;65;48.778;9.160;2023-01-09T09:14:44;5.07;;;1.15;;
140;SDS011;65;48.778;9.160;2023-01-09T09:17:28;6.70;;;2.03;;
140;SDS011;65;48.778;9.160;2023-01-09T09:19:53;4.13;;;1.23;;
140;SDS011;65;48.778;9.160;2023-01-09T09:22:19;2.75;;;1.17;;
140;SDS011;65;48.778;9.160;2023-01-09T09:24:44;4.50;;;1.05;;
140;SDS011;65;48.778;9.160;2023-01-09T09:27:09;3.28;;;0.90;;
140;SDS011;65;48.778;9.160;2023-01-09T09:29:35;3.22;;;1.08;;
140;SDS011;65;48.778;9.160;2023-01-09T09:32:00;2.30;;;1.00;;
140;SDS011;65;48.778;9.160;2023-01-09T09:34:25;3.53;;;1.10;;
140;SDS011;65;48.778;9.160;2023-01-09T09:36:51;4.20;;;0.93;;
140;SDS011;65;48.778;9.160;2023-01-09T09:39:17;4.68;;;1.23;;
140;SDS011;65;48.778;9.160;2023-01-09T09:55:17;5.75;;;1.20;;
140;SDS011;65;48.778;9.160;2023-01-09T09:57:47;5.50;;;1.20;;
140;SDS011;65;48.778;9.160;2023-01-09T10:00:17;4.68;;;1.08;;
140;SDS011;65;48.778;9.160;2023-01-09T10:05:24;5.55;;;1.38;;
140;SDS011;65;48.778;9.160;2023-01-09T10:07:52;4.82;;;1.27;;
140;SDS011;65;48.778;9.160;2023-01-09T10:10:40;7.05;;;1.63;;
140;SDS011;65;48.778;9.160;2023-01-09T10:13:12;4.22;;;1.20;;
140;SDS011;65;48.778;9.160;2023-01-09T10:16:06;3.45;;;1.10;;
140;SDS011;65;48.778;9.160;2023-01-09T10:24:20;3.90;;;0.93;;
140;SDS011;65;48.778;9.160;2023-01-09T10:27:13;2.75;;;0.90;;
140;SDS011;65;48.778;9.160;2023-01-09T10:33:22;5.88;;;1.60;;
140;SDS011;65;48.778;9.160;2023-01-09T10:38:49;17.55;;;2.85;;
140;SDS011;65;48.778;9.160;2023-01-09T10:47:21;3.35;;;1.10;;
140;SDS011;65;48.778;9.160;2023-01-09T10:49:52;5.80;;;1.20;;
140;SDS011;65;48.778;9.160;2023-01-09T10:52:19;5.97;;;1.50;;
140;SDS011;65;48.778;9.160;2023-01-09T10:54:56;5.90;;;1.35;;
140;SDS011;65;48.778;9.160;2023-01-09T10:57:45;4.60;;;1.40;;
140;SDS011;65;48.778;9.160;2023-01-09T11:00:20;5.43;;;1.20;;
140;SDS011;65;48.778;9.160;2023-01-09T11:02:48;7.43;;;1.52;;
140;SDS011;65;48.778;9.160;2023-01-09T11:05:15;4.15;;;1.35;;
140;SDS011;65;48.778;9.160;2023-01-09T11:10:49;4.55;;;1.13;;
140;SDS011;65;48.778;9.160;2023-01-09T11:15:44;5.40;;;1.38;;
140;SDS011;65;48.778;9.160;2023-01-09T11:18:16;7.63;;;1.38;;
140;SDS011;65;48.778;9.160;2023-01-09T11:20:44;5.60;;;1.10;;
140;SDS011;65;48.778;9.160;2023-01-09T11:23:23;4.25;;;1.17;;
140;SDS011;65;48.778;9.160;2023-01-09T11:25:57;5.57;;;1.35;;
140;SDS011;65;48.778;9.160;2023-01-09T11:28:25;5.55;;;1.60;;
140;SDS011;65;48.778;9.160;2023-01-09T11:30:51;5.65;;;1.92;;
140;SDS011;65;48.778;9.160;2023-01-09T11:33:20;7.60;;;1.70;;
140;SDS011;65;48.778;9.160;2023-01-09T11:36:07;5.88;;;1.08;;
140;SDS011;65;48.778;9.160;2023-01-09T11:38:48;5.75;;;1.50;;
140;SDS011;65;48.778;9.160;2023-01-09T11:41:23;5.30;;;1.30;;
140;SDS011;65;48.778;9.160;2023-01-09T11:44:01;8.13;;;2.00;;
140;SDS011;65;48.778;9.160;2023-01-09T11:46:32;7.22;;;1.42;;
140;SDS011;65;48.778;9.160;2023-01-09T11:49:02;6.50;;;1.38;;
140;SDS011;65;48.778;9.160;2023-01-09T11:51:31;7.13;;;1.50;;
140;SDS011;65;48.778;9.160;2023-01-09T11:56:51;6.40;;;1.75;;
140;SDS011;65;48.778;9.160;2023-01-09T11:59:17;6.03;;;1.52;;
140;SDS011;65;48.778;9.160;2023-01-09T12:04:35;5.03;;;1.15;;
140;SDS011;65;48.778;9.160;2023-01-09T12:12:49;4.63;;;1.35;;
140;SDS011;65;48.778;9.160;2023-01-09T12:15:35;2.47;;;1.20;;
140;SDS011;65;48.778;9.160;2023-01-09T12:18:13;4.70;;;1.27;;
140;SDS011;65;48.778;9.160;2023-01-09T12:21:10;5.65;;;1.50;;
140;SDS011;65;48.778;9.160;2023-01-09T12:28:59;5.95;;;1.50;;
140;SDS011;65;48.778;9.160;2023-01-09T12:42:27;6.47;;;1.40;;
140;SDS011;65;48.778;9.160;2023-01-09T12:45:25;6.05;;;1.67;;
140;SDS011;65;48.778;9.160;2023-01-09T12:47:53;4.82;;;1.30;;
140;SDS011;65;48.778;9.160;2023-01-09T12:55:42;4.78;;;1.73;;
140;SDS011;65;48.778;9.160;2023-01-09T12:58:22;7.22;;;1.40;;
140;SDS011;65;48.778;9.160;2023-01-09T13:00:49;7.00;;;1.20;;
140;SDS011;65;48.778;9.160;2023-01-09T13:03:22;6.07;;;1.40;;
140;SDS011;65;48.778;9.160;2023-01-09T13:05:56;3.40;;;1.15;;
140;SDS011;65;48.778;9.160;2023-01-09T13:11:12;4.90;;;1.38;;
140;SDS011;65;48.778;9.160;2023-01-09T13:16:16;5.53;;;1.27;;
140;SDS011;65;48.778;9.160;2023-01-09T13:18:51;3.15;;;1.25;;
140;SDS011;65;48.778;9.160;2023-01-09T13:21:30;3.55;;;1.15;;
140;SDS011;65;48.778;9.160;2023-01-09T13:27:10;3.88;;;1.30;;
140;SDS011;65;48.778;9.160;2023-01-09T13:29:45;6.43;;;1.70;;
140;SDS011;65;48.778;9.160;2023-01-09T13:35:00;4.55;;;1.20;;
140;SDS011;65;48.778;9.160;2023-01-09T13:37:27;4.03;;;1.38;;
140;SDS011;65;48.778;9.160;2023-01-09T13:40:18;2.95;;;1.15;;
140;SDS011;65;48.778;9.160;2023-01-09T13:42:54;3.22;;;0.90;;
140;SDS011;65;48.778;9.160;2023-01-09T13:45:28;5.95;;;1.40;;
140;SDS011;65;48.778;9.160;2023-01-09T13:50:34;3.05;;;1.20;;
140;SDS011;65;48.778;9.160;2023-01-09T13:58:23;3.30;;;0.98;;
140;SDS011;65;48.778;9.160;2023-01-09T14:00:59;2.70;;;1.25;;
140;SDS011;65;48.778;9.160;2023-01-09T14:08:23;2.33;;;0.50;;
140;SDS011;65;48.778;9.160;2023-01-09T14:11:01;2.33;;;0.80;;
140;SDS011;65;48.778;9.160;2023-01-09T14:13:38;1.63;;;0.75;;
140;SDS011;65;48.778;9.160;2023-01-09T14:16:13;2.15;;;0.47;;
140;SDS011;65;48.778;9.160;2023-01-09T14:18:45;0.90;;;0.50;;
140;SDS011;65;48.778;9.160;2023-01-09T14:21:14;3.33;;;1.00;;
140;SDS011;65;48.778;9.160;2023-01-09T14:26:19;2.40;;;1.10;;
140;SDS011;65;48.778;9.160;2023-01-09T14:28:47;1.25;;;0.40;;
140;SDS011;65;48.778;9.160;2023-01-09T14:31:46;1.60;;;0.63;;
140;SDS011;65;48.778;9.160;2023-01-09T14:36:55;3.13;;;0.85;;
140;SDS011;65;48.778;9.160;2023-01-09T14:39:24;5.78;;;2.85;;
140;SDS011;65;48.778;9.160;2023-01-09T14:41:55;1.92;;;0.93;;
140;SDS011;65;48.778;9.160;2023-01-09T14:50:01;1.77;;;1.10;;
140;SDS011;65;48.778;9.160;2023-01-09T14:52:37;2.92;;;0.60;;
140;SDS011;65;48.778;9.160;2023-01-09T14:55:15;2.45;;;0.85;;
140;SDS011;65;48.778;9.160;2023-01-09T14:57:48;5.03;;;2.10;;
140;SDS011;65;48.778;9.160;2023-01-09T15:00:18;3.22;;;1.23;;
140;SDS011;65;48.778;9.160;2023-01-09T15:02:44;4.72;;;1.00;;
140;SDS011;65;48.778;9.160;2023-01-09T15:08:02;2.65;;;1.15;;
140;SDS011;65;48.778;9.160;2023-01-09T15:10:32;2.20;;;0.77;;
140;SDS011;65;48.778;9.160;2023-01-09T15:13:02;4.18;;;1.20;;
140;SDS011;65;48.778;9.160;2023-01-09T15:15:30;3.03;;;1.33;;
140;SDS011;65;48.778;9.160;2023-01-09T15:17:59;2.38;;;0.80;;
140;SDS011;65;48.778;9.160;2023-01-09T15:20:29;3.65;;;1.17;;
140;SDS011;65;48.778;9.160;2023-01-09T15:22:57;2.90;;;1.00;;
140;SDS011;65;48.778;9.160;2023-01-09T15:25:34;4.43;;;1.40;;
140;SDS011;65;48.778;9.160;2023-01-09T15:28:11;3.25;;;1.13;;
140;SDS011;65;48.778;9.160;2023-01-09T15:30:51;2.58;;;1.42;;
140;SDS011;65;48.778;9.160;2023-01-09T15:33:19;3.20;;;1.08;;
140;SDS011;65;48.778;9.160;2023-01-09T15:35:46;4.03;;;1.17;;
140;SDS011;65;48.778;9.160;2023-01-09T15:38:14;2.97;;;0.93;;
140;SDS011;65;48.778;9.160;2023-01-09T15:40:42;2.58;;;1.20;;
140;SDS011;65;48.778;9.160;2023-01-09T15:43:16;3.10;;;1.20;;
140;SDS011;65;48.778;9.160;2023-01-09T15:45:47;1.65;;;1.02;;
140;SDS011;65;48.778;9.160;2023-01-09T15:51:08;3.80;;;1.15;;
140;SDS011;65;48.778;9.160;2023-01-09T15:53:34;2.47;;;0.90;;
140;SDS011;65;48.778;9.160;2023-01-09T15:58:41;2.80;;;0.93;;
140;SDS011;65;48.778;9.160;2023-01-09T16:03:42;6.95;;;3.40;;
140;SDS011;65;48.778;9.160;2023-01-09T16:06:09;3.65;;;1.75;;
140;SDS011;65;48.778;9.160;2023-01-09T16:08:39;4.72;;;1.67;;
140;SDS011;65;48.778;9.160;2023-01-09T16:11:08;4.00;;;1.80;;
140;SDS011;65;48.778;9.160;2023-01-09T16:13:43;4.18;;;2.03;;
140;SDS011;65;48.778;9.160;2023-01-09T16:16:10;5.35;;;1.90;;
140;SDS011;65;48.778;9.160;2023-01-09T16:18:38;5.03;;;1.63;;
140;SDS011;65;48.778;9.160;2023-01-09T16:26:39;4.82;;;1.60;;
140;SDS011;65;48.778;9.160;2023-01-09T16:32:02;5.80;;;2.10;;
140;SDS011;65;48.778;9.160;2023-01-09T16:34:29;6.30;;;2.20;;
140;SDS011;65;48.778;9.160;2023-01-09T16:36:55;9.38;;;3.08;;
140;SDS011;65;48.778;9.160;2023-01-09T16:42:07;7.85;;;2.63;;
140;SDS011;65;48.778;9.160;2023-01-09T16:44:52;6.50;;;2.55;;
140;SDS011;65;48.778;9.160;2023-01-09T16:47:17;5.97;;;2.67;;
140;SDS011;65;48.778;9.160;2023-01-09T16:49:43;3.92;;;1.50;;
140;SDS011;65;48.778;9.160;2023-01-09T16:52:14;2.45;;;1.40;;
140;SDS011;65;48.778;9.160;2023-01-09T16:54:40;3.50;;;1.40;;
140;SDS011;65;48.778;9.160;2023-01-09T16:57:08;3.25;;;1.20;;
140;SDS011;65;48.778;9.160;2023-01-09T16:59:36;2.88;;;1.23;;
140;SDS011;65;48.778;9.160;2023-01-09T17:02:01;3.33;;;1.15;;
140;SDS011;65;48.778;9.160;2023-01-09T17:04:27;2.35;;;1.02;;
140;SDS011;65;48.778;9.160;2023-01-09T17:06:52;3.17;;;1.02;;
140;SDS011;65;48.778;9.160;2023-01-09T17:09:18;3.10;;;1.27;;
140;SDS011;65;48.778;9.160;2023-01-09T17:11:46;1.55;;;1.10;;
140;SDS011;65;48.778;9.160;2023-01-09T17:14:12;4.50;;;1.33;;
140;SDS011;65;48.778;9.160;2023-01-09T17:16:38;2.42;;;1.33;;
140;SDS011;65;48.778;9.160;2023-01-09T17:19:09;2.67;;;1.30;;
140;SDS011;65;48.778;9.160;2023-01-09T17:21:39;3.30;;;1.20;;
140;SDS011;65;48.778;9.160;2023-01-09T17:24:05;4.53;;;1.35;;
140;SDS011;65;48.778;9.160;2023-01-09T17:26:49;2.53;;;1.30;;
140;SDS011;65;48.778;9.160;2023-01-09T17:29:33;3.38;;;1.33;;
140;SDS011;65;48.778;9.160;2023-01-09T17:31:59;1.50;;;1.00;;
140;SDS011;65;48.778;9.160;2023-01-09T17:34:25;2.88;;;1.25;;
140;SDS011;65;48.778;9.160;2023-01-09T17:36:50;1.65;;;1.10;;
140;SDS011;65;48.778;9.160;2023-01-09T17:39:20;3.75;;;1.70;;
140;SDS011;65;48.778;9.160;2023-01-09T17:41:47;2.83;;;1.42;;
140;SDS011;65;48.778;9.160;2023-01-09T17:44:13;3.70;;;1.45;;
140;SDS011;65;48.778;9.160;2023-01-09T17:46:39;1.77;;;1.23;;
140;SDS011;65;48.778;9.160;2023-01-09T17:49:08;4.57;;;1.58;;
140;SDS011;65;48.778;9.160;2023-01-09T17:51:39;3.75;;;1.52;;
140;SDS011;65;48.778;9.160;2023-01-09T17:54:04;5.60;;;2.72;;
140;SDS011;65;48.778;9.160;2023-01-09T17:56:30;4.95;;;1.50;;
140;SDS011;65;48.778;9.160;2023-01-09T17:58:58;3.00;;;1.50;;
140;SDS011;65;48.778;9.160;2023-01-09T18:01:24;3.42;;;1.70;;
140;SDS011;65;48.778;9.160;2023-01-09T18:03:50;2.53;;;1.08;;
140;SDS011;65;48.778;9.160;2023-01-09T18:06:16;3.40;;;1.38;;
140;SDS011;65;48.778;9.160;2023-01-09T18:08:43;3.17;;;1.30;;
140;SDS011;65;48.778;9.160;2023-01-09T18:11:13;3.40;;;1.52;;
140;SDS011;65;48.778;9.160;2023-01-09T18:13:41;2.95;;;1.30;;
140;SDS011;65;48.778;9.160;2023-01-09T18:18:54;3.13;;;1.40;;
140;SDS011;65;48.778;9.160;2023-01-09T18:21:22;8.23;;;2.28;;
140;SDS011;65;48.778;9.160;2023-01-09T18:23:48;2.58;;;1.20;;
140;SDS011;65;48.778;9.160;2023-01-09T18:26:14;2.17;;;1.02;;
140;SDS011;65;48.778;9.160;2023-01-09T18:28:45;2.17;;;1.20;;
140;SDS011;65;48.778;9.160;2023-01-09T18:31:15;3.83;;;1.55;;
140;SDS011;65;48.778;9.160;2023-01-09T18:33:45;2.53;;;1.50;;
140;SDS011;65;48.778;9.160;2023-01-09T18:36:15;2.10;;;1.17;;
140;SDS011;65;48.778;9.160;2023-01-09T18:38:40;2.45;;;1.30;;
140;SDS011;65;48.778;9.160;2023-01-09T18:41:06;4.18;;;1.40;;
140;SDS011;65;48.778;9.160;2023-01-09T18:43:31;2.42;;;1.30;;
140;SDS011;65;48.778;9.160;2023-01-09T18:45:56;2.58;;;1.17;;
140;SDS011;65;48.778;9.160;2023-01-09T18:48:22;3.45;;;1.33;;
140;SDS011;65;48.778;9.160;2023-01-09T18:50:48;2.20;;;1.30;;
140;SDS011;65;48.778;9.160;2023-01-09T18:53:13;2.17;;;1.10;;
140;SDS011;65;48.778;9.160;2023-01-09T18:55:39;1.20;;;0.93;;
140;SDS011;65;48.778;9.160;2023-01-09T18:58:04;4.47;;;1.60;;
140;SDS011;65;48.778;9.160;2023-01-09T19:00:30;2.50;;;1.50;;
140;SDS011;65;48.778;9.160;2023-01-09T19:02:55;6.18;;;1.67;;
140;SDS011;65;48.778;9.160;2023-01-09T19:05:20;3.45;;;1.55;;